sensor_id;sensor_type;location;lat;lon;timestamp;P1;durP1;ratioP1;P2;durP2;ratioP2
19566;SDS011;9930;49.240;8.548;2022-07-30T00:00:05;2.70;;;2.50;;
19566;SDS011;9930;49.240;8.548;2022-07-30T00:02:39;2.55;;;2.28;;
19566;SDS011;9930;49.240;8.548;2022-07-30T00:05:07;2.75;;;2.55;;
19566;SDS011;9930;49.240;8.548;2022-07-30T00:07:36;2.95;;;2.60;;
19566;SDS011;9930;49.240;8.548;2022-07-30T00:10:02;2.92;;;2.72;;
19566;SDS011;9930;49.240;8.548;2022-07-30T00:12:33;3.10;;;2.90;;
19566;SDS011;9930;49.240;8.548;2022-07-30T00:15:04;3.20;;;2.92;;
19566;SDS011;9930;49.240;8.548;2022-07-30T00:17:35;3.67;;;3.38;;
19566;SDS011;9930;49.240;8.548;2022-07-30T00:20:10;3.78;;;2.97;;
19566;SDS011;9930;49.240;8.548;2022-07-30T00:22:36;5.68;;;3.10;;
19566;SDS011;9930;49.240;8.548;2022-07-30T00:25:05;2.83;;;2.50;;
19566;SDS011;9930;49.240;8.548;2022-07-30T00:27:34;3.42;;;3.13;;
19566;SDS011;9930;49.240;8.548;2022-07-30T00:30:04;3.22;;;2.95;;
19566;SDS011;9930;49.240;8.548;2022-07-30T00:32:36;3.40;;;2.92;;
19566;SDS011;9930;49.240;8.548;2022-07-30T00:35:05;3.10;;;2.70;;
19566;SDS011;9930;49.240;8.548;2022-07-30T00:37:34;3.15;;;2.85;;
19566;SDS011;9930;49.240;8.548;2022-07-30T00:40:05;3.00;;;2.80;;
19566;SDS011;9930;49.240;8.548;2022-07-30T00:42:40;3.05;;;2.60;;
19566;SDS011;9930;49.240;8.548;2022-07-30T00:45:11;2.70;;;2.47;;
19566;SDS011;9930;49.240;8.548;2022-07-30T00:47:39;3.03;;;2.75;;
19566;SDS011;9930;49.240;8.548;2022-07-30T00:50:09;2.92;;;2.72;;
19566;SDS011;9930;49.240;8.548;2022-07-30T00:52:38;5.20;;;2.90;;
19566;SDS011;9930;49.240;8.548;2022-07-30T00:55:06;3.40;;;2.88;;
19566;SDS011;9930;49.240;8.548;2022-07-30T00:57:35;3.15;;;2.95;;
19566;SDS011;9930;49.240;8.548;2022-07-30T01:00:03;4.03;;;3.60;;
19566;SDS011;9930;49.240;8.548;2022-07-30T01:02:36;3.20;;;2.90;;
19566;SDS011;9930;49.240;8.548;2022-07-30T01:05:06;3.25;;;3.05;;
19566;SDS011;9930;49.240;8.548;2022-07-30T01:07:35;4.60;;;3.03;;
19566;SDS011;9930;49.240;8.548;2022-07-30T01:10:04;3.40;;;2.75;;
19566;SDS011;9930;49.240;8.548;2022-07-30T01:12:36;3.15;;;2.70;;
19566;SDS011;9930;49.240;8.548;2022-07-30T01:15:06;2.65;;;2.45;;
19566;SDS011;9930;49.240;8.548;2022-07-30T01:17:37;3.28;;;3.00;;
19566;SDS011;9930;49.240;8.548;2022-07-30T01:20:08;3.03;;;2.83;;
19566;SDS011;9930;49.240;8.548;2022-07-30T01:22:44;2.97;;;2.78;;
19566;SDS011;9930;49.240;8.548;2022-07-30T01:28:15;2.97;;;2.80;;
19566;SDS011;9930;49.240;8.548;2022-07-30T01:30:47;2.85;;;2.65;;
19566;SDS011;9930;49.240;8.548;2022-07-30T01:33:16;3.05;;;2.85;;
19566;SDS011;9930;49.240;8.548;2022-07-30T01:35:49;2.85;;;2.65;;
19566;SDS011;9930;49.240;8.548;2022-07-30T01:38:17;2.92;;;2.60;;
19566;SDS011;9930;49.240;8.548;2022-07-30T01:40:50;2.90;;;2.70;;
19566;SDS011;9930;49.240;8.548;2022-07-30T01:43:18;2.97;;;2.78;;
19566;SDS011;9930;49.240;8.548;2022-07-30T01:45:47;3.15;;;2.90;;
19566;SDS011;9930;49.240;8.548;2022-07-30T01:48:15;3.10;;;2.90;;
19566;SDS011;9930;49.240;8.548;2022-07-30T01:50:45;2.92;;;2.70;;
19566;SDS011;9930;49.240;8.548;2022-07-30T01:53:20;3.03;;;2.83;;
19566;SDS011;9930;49.240;8.548;2022-07-30T01:55:50;3.10;;;2.88;;
19566;SDS011;9930;49.240;8.548;2022-07-30T01:58:19;3.67;;;3.30;;
19566;SDS011;9930;49.240;8.548;2022-07-30T02:00:48;2.92;;;2.70;;
19566;SDS011;9930;49.240;8.548;2022-07-30T02:03:15;3.10;;;2.90;;
19566;SDS011;9930;49.240;8.548;2022-07-30T02:05:42;3.67;;;2.97;;
19566;SDS011;9930;49.240;8.548;2022-07-30T02:08:21;2.95;;;2.75;;
19566;SDS011;9930;49.240;8.548;2022-07-30T02:10:53;3.30;;;3.10;;
19566;SDS011;9930;49.240;8.548;2022-07-30T02:14:20;3.20;;;3.00;;
19566;SDS011;9930;49.240;8.548;2022-07-30T02:16:55;3.10;;;2.90;;
19566;SDS011;9930;49.240;8.548;2022-07-30T02:19:32;3.15;;;2.53;;
19566;SDS011;9930;49.240;8.548;2022-07-30T02:22:08;2.75;;;2.55;;
19566;SDS011;9930;49.240;8.548;2022-07-30T02:24:40;3.00;;;2.67;;
19566;SDS011;9930;49.240;8.548;2022-07-30T02:27:43;3.25;;;3.05;;
19566;SDS011;9930;49.240;8.548;2022-07-30T02:30:08;3.15;;;2.95;;
19566;SDS011;9930;49.240;8.548;2022-07-30T02:32:37;3.25;;;2.92;;
19566;SDS011;9930;49.240;8.548;2022-07-30T02:35:10;2.92;;;2.72;;
19566;SDS011;9930;49.240;8.548;2022-07-30T02:37:48;4.40;;;3.20;;
19566;SDS011;9930;49.240;8.548;2022-07-30T02:40:20;3.05;;;2.85;;
19566;SDS011;9930;49.240;8.548;2022-07-30T02:42:51;3.15;;;2.85;;
19566;SDS011;9930;49.240;8.548;2022-07-30T02:45:21;3.00;;;2.80;;
19566;SDS011;9930;49.240;8.548;2022-07-30T02:47:50;2.92;;;2.72;;
19566;SDS011;9930;49.240;8.548;2022-07-30T02:50:21;3.40;;;3.10;;
19566;SDS011;9930;49.240;8.548;2022-07-30T02:52:52;3.30;;;3.00;;
19566;SDS011;9930;49.240;8.548;2022-07-30T02:55:21;3.15;;;2.92;;
19566;SDS011;9930;49.240;8.548;2022-07-30T02:57:51;3.13;;;2.83;;
19566;SDS011;9930;49.240;8.548;2022-07-30T03:00:22;3.40;;;3.20;;
19566;SDS011;9930;49.240;8.548;2022-07-30T03:02:50;3.08;;;2.88;;
19566;SDS011;9930;49.240;8.548;2022-07-30T03:05:23;2.63;;;2.42;;
19566;SDS011;9930;49.240;8.548;2022-07-30T03:07:54;3.30;;;3.00;;
19566;SDS011;9930;49.240;8.548;2022-07-30T03:10:22;3.33;;;3.03;;
19566;SDS011;9930;49.240;8.548;2022-07-30T03:12:53;4.28;;;3.15;;
19566;SDS011;9930;49.240;8.548;2022-07-30T03:15:24;3.30;;;3.05;;
19566;SDS011;9930;49.240;8.548;2022-07-30T03:17:52;3.20;;;3.00;;
19566;SDS011;9930;49.240;8.548;2022-07-30T03:20:24;3.28;;;3.08;;
19566;SDS011;9930;49.240;8.548;2022-07-30T03:23:01;5.03;;;3.53;;
19566;SDS011;9930;49.240;8.548;2022-07-30T03:25:32;4.20;;;3.80;;
19566;SDS011;9930;49.240;8.548;2022-07-30T03:28:05;4.05;;;3.70;;
19566;SDS011;9930;49.240;8.548;2022-07-30T03:30:39;3.53;;;3.22;;
19566;SDS011;9930;49.240;8.548;2022-07-30T03:33:10;3.70;;;3.40;;
19566;SDS011;9930;49.240;8.548;2022-07-30T03:35:42;3.40;;;3.10;;
19566;SDS011;9930;49.240;8.548;2022-07-30T03:38:14;3.67;;;3.35;;
19566;SDS011;9930;49.240;8.548;2022-07-30T03:40:42;3.35;;;3.10;;
19566;SDS011;9930;49.240;8.548;2022-07-30T03:43:12;3.85;;;3.47;;
19566;SDS011;9930;49.240;8.548;2022-07-30T03:45:39;3.90;;;3.60;;
19566;SDS011;9930;49.240;8.548;2022-07-30T03:48:08;3.30;;;3.00;;
19566;SDS011;9930;49.240;8.548;2022-07-30T03:50:37;3.50;;;3.30;;
19566;SDS011;9930;49.240;8.548;2022-07-30T03:53:07;3.85;;;3.42;;
19566;SDS011;9930;49.240;8.548;2022-07-30T03:55:35;4.45;;;3.30;;
19566;SDS011;9930;49.240;8.548;2022-07-30T03:58:02;3.35;;;3.05;;
19566;SDS011;9930;49.240;8.548;2022-07-30T04:00:37;3.17;;;2.92;;
19566;SDS011;9930;49.240;8.548;2022-07-30T04:03:06;3.22;;;2.92;;
19566;SDS011;9930;49.240;8.548;2022-07-30T04:05:35;4.57;;;3.40;;
19566;SDS011;9930;49.240;8.548;2022-07-30T04:08:02;3.75;;;3.45;;
19566;SDS011;9930;49.240;8.548;2022-07-30T04:10:31;4.05;;;3.03;;
19566;SDS011;9930;49.240;8.548;2022-07-30T04:13:10;4.28;;;3.88;;
19566;SDS011;9930;49.240;8.548;2022-07-30T04:15:44;3.17;;;2.97;;
19566;SDS011;9930;49.240;8.548;2022-07-30T04:18:35;3.72;;;3.42;;
19566;SDS011;9930;49.240;8.548;2022-07-30T04:21:07;3.53;;;3.22;;
19566;SDS011;9930;49.240;8.548;2022-07-30T04:23:38;3.97;;;3.67;;
19566;SDS011;9930;49.240;8.548;2022-07-30T04:26:06;3.33;;;3.13;;
19566;SDS011;9930;49.240;8.548;2022-07-30T04:28:34;3.42;;;3.00;;
19566;SDS011;9930;49.240;8.548;2022-07-30T04:31:04;4.07;;;3.60;;
19566;SDS011;9930;49.240;8.548;2022-07-30T04:33:38;3.50;;;3.30;;
19566;SDS011;9930;49.240;8.548;2022-07-30T04:36:05;3.42;;;3.13;;
19566;SDS011;9930;49.240;8.548;2022-07-30T04:38:36;3.40;;;3.20;;
19566;SDS011;9930;49.240;8.548;2022-07-30T04:41:08;3.72;;;3.50;;
19566;SDS011;9930;49.240;8.548;2022-07-30T04:43:36;3.70;;;3.40;;
19566;SDS011;9930;49.240;8.548;2022-07-30T04:46:08;3.70;;;3.40;;
19566;SDS011;9930;49.240;8.548;2022-07-30T04:48:36;3.60;;;3.35;;
19566;SDS011;9930;49.240;8.548;2022-07-30T04:51:06;4.25;;;3.95;;
19566;SDS011;9930;49.240;8.548;2022-07-30T04:53:39;3.53;;;3.13;;
19566;SDS011;9930;49.240;8.548;2022-07-30T04:56:07;3.58;;;3.28;;
19566;SDS011;9930;49.240;8.548;2022-07-30T04:58:35;3.70;;;3.40;;
19566;SDS011;9930;49.240;8.548;2022-07-30T05:01:10;4.03;;;3.72;;
19566;SDS011;9930;49.240;8.548;2022-07-30T05:03:46;3.65;;;3.35;;
19566;SDS011;9930;49.240;8.548;2022-07-30T05:06:18;3.50;;;3.28;;
19566;SDS011;9930;49.240;8.548;2022-07-30T05:08:45;3.60;;;3.40;;
19566;SDS011;9930;49.240;8.548;2022-07-30T05:11:11;4.35;;;3.78;;
19566;SDS011;9930;49.240;8.548;2022-07-30T05:13:41;3.33;;;3.10;;
19566;SDS011;9930;49.240;8.548;2022-07-30T05:16:12;3.85;;;3.55;;
19566;SDS011;9930;49.240;8.548;2022-07-30T05:18:41;4.18;;;3.88;;
19566;SDS011;9930;49.240;8.548;2022-07-30T05:21:07;4.22;;;3.83;;
19566;SDS011;9930;49.240;8.548;2022-07-30T05:23:38;3.85;;;3.47;;
19566;SDS011;9930;49.240;8.548;2022-07-30T05:26:06;3.35;;;3.15;;
19566;SDS011;9930;49.240;8.548;2022-07-30T05:28:36;3.53;;;3.33;;
19566;SDS011;9930;49.240;8.548;2022-07-30T05:31:07;6.03;;;3.67;;
19566;SDS011;9930;49.240;8.548;2022-07-30T05:33:38;3.25;;;2.95;;
19566;SDS011;9930;49.240;8.548;2022-07-30T05:36:05;4.20;;;3.80;;
19566;SDS011;9930;49.240;8.548;2022-07-30T05:38:33;3.65;;;3.00;;
19566;SDS011;9930;49.240;8.548;2022-07-30T05:41:01;3.60;;;3.30;;
19566;SDS011;9930;49.240;8.548;2022-07-30T05:46:20;3.97;;;3.67;;
19566;SDS011;9930;49.240;8.548;2022-07-30T05:48:48;3.55;;;3.25;;
19566;SDS011;9930;49.240;8.548;2022-07-30T05:51:14;3.85;;;3.22;;
19566;SDS011;9930;49.240;8.548;2022-07-30T05:53:42;3.50;;;3.20;;
19566;SDS011;9930;49.240;8.548;2022-07-30T05:56:08;3.40;;;3.10;;
19566;SDS011;9930;49.240;8.548;2022-07-30T05:58:40;4.10;;;3.60;;
19566;SDS011;9930;49.240;8.548;2022-07-30T06:01:06;4.03;;;3.63;;
19566;SDS011;9930;49.240;8.548;2022-07-30T06:03:36;3.10;;;2.90;;
19566;SDS011;9930;49.240;8.548;2022-07-30T06:06:07;3.42;;;3.05;;
19566;SDS011;9930;49.240;8.548;2022-07-30T06:08:36;3.10;;;2.90;;
19566;SDS011;9930;49.240;8.548;2022-07-30T06:11:08;3.90;;;3.50;;
19566;SDS011;9930;49.240;8.548;2022-07-30T06:13:38;2.95;;;2.75;;
19566;SDS011;9930;49.240;8.548;2022-07-30T06:16:05;3.40;;;3.10;;
19566;SDS011;9930;49.240;8.548;2022-07-30T06:18:36;3.17;;;2.88;;
19566;SDS011;9930;49.240;8.548;2022-07-30T06:21:02;3.20;;;2.90;;
19566;SDS011;9930;49.240;8.548;2022-07-30T06:23:32;3.17;;;2.90;;
19566;SDS011;9930;49.240;8.548;2022-07-30T06:26:09;4.85;;;3.10;;
19566;SDS011;9930;49.240;8.548;2022-07-30T06:28:37;2.83;;;2.63;;
19566;SDS011;9930;49.240;8.548;2022-07-30T06:31:06;3.22;;;2.88;;
19566;SDS011;9930;49.240;8.548;2022-07-30T06:33:37;3.03;;;2.72;;
19566;SDS011;9930;49.240;8.548;2022-07-30T06:36:06;3.20;;;2.72;;
19566;SDS011;9930;49.240;8.548;2022-07-30T06:38:32;5.45;;;2.83;;
19566;SDS011;9930;49.240;8.548;2022-07-30T06:41:01;2.97;;;2.70;;
19566;SDS011;9930;49.240;8.548;2022-07-30T06:43:31;3.95;;;2.97;;
19566;SDS011;9930;49.240;8.548;2022-07-30T06:46:01;2.90;;;2.70;;
19566;SDS011;9930;49.240;8.548;2022-07-30T06:48:28;3.38;;;2.60;;
19566;SDS011;9930;49.240;8.548;2022-07-30T06:50:58;2.72;;;2.53;;
19566;SDS011;9930;49.240;8.548;2022-07-30T06:53:23;3.33;;;3.03;;
19566;SDS011;9930;49.240;8.548;2022-07-30T06:55:52;2.55;;;2.35;;
19566;SDS011;9930;49.240;8.548;2022-07-30T06:58:17;3.53;;;2.78;;
19566;SDS011;9930;49.240;8.548;2022-07-30T07:00:45;3.05;;;2.83;;
19566;SDS011;9930;49.240;8.548;2022-07-30T07:03:11;2.60;;;2.40;;
19566;SDS011;9930;49.240;8.548;2022-07-30T07:05:37;3.22;;;2.92;;
19566;SDS011;9930;49.240;8.548;2022-07-30T07:08:07;2.80;;;2.60;;
19566;SDS011;9930;49.240;8.548;2022-07-30T07:10:36;3.20;;;2.40;;
19566;SDS011;9930;49.240;8.548;2022-07-30T07:13:08;3.13;;;2.63;;
19566;SDS011;9930;49.240;8.548;2022-07-30T07:15:39;2.80;;;2.60;;
19566;SDS011;9930;49.240;8.548;2022-07-30T07:18:08;3.00;;;2.70;;
19566;SDS011;9930;49.240;8.548;2022-07-30T07:20:36;3.08;;;2.78;;
19566;SDS011;9930;49.240;8.548;2022-07-30T07:23:07;2.78;;;2.58;;
19566;SDS011;9930;49.240;8.548;2022-07-30T07:25:40;2.50;;;2.30;;
19566;SDS011;9930;49.240;8.548;2022-07-30T07:28:08;2.70;;;2.50;;
19566;SDS011;9930;49.240;8.548;2022-07-30T07:30:42;2.53;;;2.33;;
19566;SDS011;9930;49.240;8.548;2022-07-30T07:33:10;2.63;;;2.42;;
19566;SDS011;9930;49.240;8.548;2022-07-30T07:35:39;2.53;;;2.33;;
19566;SDS011;9930;49.240;8.548;2022-07-30T07:38:07;3.25;;;2.78;;
19566;SDS011;9930;49.240;8.548;2022-07-30T07:40:37;2.65;;;2.45;;
19566;SDS011;9930;49.240;8.548;2022-07-30T07:43:05;2.80;;;2.60;;
19566;SDS011;9930;49.240;8.548;2022-07-30T07:45:32;3.10;;;2.85;;
19566;SDS011;9930;49.240;8.548;2022-07-30T07:48:07;2.75;;;2.50;;
19566;SDS011;9930;49.240;8.548;2022-07-30T07:50:36;2.70;;;2.50;;
19566;SDS011;9930;49.240;8.548;2022-07-30T07:53:06;2.90;;;2.70;;
19566;SDS011;9930;49.240;8.548;2022-07-30T07:55:37;3.03;;;2.72;;
19566;SDS011;9930;49.240;8.548;2022-07-30T07:58:04;3.22;;;2.90;;
19566;SDS011;9930;49.240;8.548;2022-07-30T08:00:38;3.78;;;3.00;;
19566;SDS011;9930;49.240;8.548;2022-07-30T08:03:06;4.57;;;3.08;;
19566;SDS011;9930;49.240;8.548;2022-07-30T08:05:35;3.42;;;3.13;;
19566;SDS011;9930;49.240;8.548;2022-07-30T08:08:06;3.17;;;2.97;;
19566;SDS011;9930;49.240;8.548;2022-07-30T08:10:32;3.17;;;2.88;;
19566;SDS011;9930;49.240;8.548;2022-07-30T08:13:01;3.30;;;3.00;;
19566;SDS011;9930;49.240;8.548;2022-07-30T08:15:35;3.38;;;3.00;;
19566;SDS011;9930;49.240;8.548;2022-07-30T08:18:07;3.45;;;2.88;;
19566;SDS011;9930;49.240;8.548;2022-07-30T08:20:36;3.92;;;3.08;;
19566;SDS011;9930;49.240;8.548;2022-07-30T08:23:05;3.40;;;3.10;;
19566;SDS011;9930;49.240;8.548;2022-07-30T08:25:34;3.65;;;2.88;;
19566;SDS011;9930;49.240;8.548;2022-07-30T08:28:01;3.50;;;2.90;;
19566;SDS011;9930;49.240;8.548;2022-07-30T08:30:39;3.17;;;2.60;;
19566;SDS011;9930;49.240;8.548;2022-07-30T08:33:08;3.20;;;2.92;;
19566;SDS011;9930;49.240;8.548;2022-07-30T08:35:36;2.65;;;2.25;;
19566;SDS011;9930;49.240;8.548;2022-07-30T08:38:05;2.65;;;2.45;;
19566;SDS011;9930;49.240;8.548;2022-07-30T08:40:32;2.85;;;2.55;;
19566;SDS011;9930;49.240;8.548;2022-07-30T08:43:02;3.20;;;3.00;;
19566;SDS011;9930;49.240;8.548;2022-07-30T08:45:34;3.10;;;2.90;;
19566;SDS011;9930;49.240;8.548;2022-07-30T08:48:06;2.65;;;2.45;;
19566;SDS011;9930;49.240;8.548;2022-07-30T08:50:35;2.70;;;2.50;;
19566;SDS011;9930;49.240;8.548;2022-07-30T08:53:02;3.92;;;2.70;;
19566;SDS011;9930;49.240;8.548;2022-07-30T08:55:36;3.28;;;2.70;;
19566;SDS011;9930;49.240;8.548;2022-07-30T08:58:02;3.20;;;2.90;;
19566;SDS011;9930;49.240;8.548;2022-07-30T09:00:53;3.30;;;2.67;;
19566;SDS011;9930;49.240;8.548;2022-07-30T09:03:18;2.42;;;2.22;;
19566;SDS011;9930;49.240;8.548;2022-07-30T09:05:44;2.80;;;2.53;;
19566;SDS011;9930;49.240;8.548;2022-07-30T09:08:10;3.67;;;2.63;;
19566;SDS011;9930;49.240;8.548;2022-07-30T09:10:36;2.25;;;2.05;;
19566;SDS011;9930;49.240;8.548;2022-07-30T09:13:03;2.60;;;2.40;;
19566;SDS011;9930;49.240;8.548;2022-07-30T09:15:47;2.50;;;2.30;;
19566;SDS011;9930;49.240;8.548;2022-07-30T09:18:29;2.85;;;2.53;;
19566;SDS011;9930;49.240;8.548;2022-07-30T09:23:56;2.88;;;2.20;;
19566;SDS011;9930;49.240;8.548;2022-07-30T09:27:00;3.65;;;2.67;;
19566;SDS011;9930;49.240;8.548;2022-07-30T09:29:30;2.63;;;2.17;;
19566;SDS011;9930;49.240;8.548;2022-07-30T09:31:57;2.40;;;2.20;;
19566;SDS011;9930;49.240;8.548;2022-07-30T09:34:37;3.05;;;2.35;;
19566;SDS011;9930;49.240;8.548;2022-07-30T09:39:39;2.80;;;2.47;;
19566;SDS011;9930;49.240;8.548;2022-07-30T09:42:19;2.33;;;2.13;;
19566;SDS011;9930;49.240;8.548;2022-07-30T09:44:51;2.10;;;1.90;;
19566;SDS011;9930;49.240;8.548;2022-07-30T09:47:38;5.03;;;2.42;;
19566;SDS011;9930;49.240;8.548;2022-07-30T09:50:14;2.50;;;2.08;;
19566;SDS011;9930;49.240;8.548;2022-07-30T09:52:48;2.22;;;2.03;;
19566;SDS011;9930;49.240;8.548;2022-07-30T09:55:27;2.40;;;2.17;;
19566;SDS011;9930;49.240;8.548;2022-07-30T09:58:03;2.58;;;2.20;;
19566;SDS011;9930;49.240;8.548;2022-07-30T10:00:36;2.75;;;2.08;;
19566;SDS011;9930;49.240;8.548;2022-07-30T10:05:54;2.10;;;1.90;;
19566;SDS011;9930;49.240;8.548;2022-07-30T10:08:43;2.88;;;2.13;;
19566;SDS011;9930;49.240;8.548;2022-07-30T10:11:16;2.72;;;2.00;;
19566;SDS011;9930;49.240;8.548;2022-07-30T10:13:50;2.38;;;2.13;;
19566;SDS011;9930;49.240;8.548;2022-07-30T10:16:20;2.85;;;2.10;;
19566;SDS011;9930;49.240;8.548;2022-07-30T10:18:52;2.10;;;2.00;;
19566;SDS011;9930;49.240;8.548;2022-07-30T10:21:21;5.03;;;3.95;;
19566;SDS011;9930;49.240;8.548;2022-07-30T10:23:47;8.32;;;6.72;;
19566;SDS011;9930;49.240;8.548;2022-07-30T10:26:16;7.82;;;7.22;;
19566;SDS011;9930;49.240;8.548;2022-07-30T10:28:42;4.00;;;3.70;;
19566;SDS011;9930;49.240;8.548;2022-07-30T10:31:08;7.25;;;6.55;;
19566;SDS011;9930;49.240;8.548;2022-07-30T10:33:36;4.43;;;4.10;;
19566;SDS011;9930;49.240;8.548;2022-07-30T10:36:03;2.90;;;2.53;;
19566;SDS011;9930;49.240;8.548;2022-07-30T10:38:37;5.13;;;3.75;;
19566;SDS011;9930;49.240;8.548;2022-07-30T10:41:08;8.43;;;7.57;;
19566;SDS011;9930;49.240;8.548;2022-07-30T10:49:27;3.08;;;2.75;;
19566;SDS011;9930;49.240;8.548;2022-07-30T10:51:54;4.07;;;2.28;;
19566;SDS011;9930;49.240;8.548;2022-07-30T10:54:36;4.05;;;2.03;;
19566;SDS011;9930;49.240;8.548;2022-07-30T10:57:15;1.88;;;1.73;;
19566;SDS011;9930;49.240;8.548;2022-07-30T11:02:14;1.63;;;1.52;;
19566;SDS011;9930;49.240;8.548;2022-07-30T11:04:41;1.80;;;1.70;;
19566;SDS011;9930;49.240;8.548;2022-07-30T11:09:48;1.95;;;1.75;;
19566;SDS011;9930;49.240;8.548;2022-07-30T11:12:50;2.80;;;1.92;;
19566;SDS011;9930;49.240;8.548;2022-07-30T11:15:08;2.97;;;1.73;;
19566;SDS011;9930;49.240;8.548;2022-07-30T11:20:35;2.35;;;1.70;;
19566;SDS011;9930;49.240;8.548;2022-07-30T11:25:48;1.83;;;1.70;;
19566;SDS011;9930;49.240;8.548;2022-07-30T11:28:36;1.80;;;1.70;;
19566;SDS011;9930;49.240;8.548;2022-07-30T11:31:27;1.50;;;1.40;;
19566;SDS011;9930;49.240;8.548;2022-07-30T11:47:43;3.10;;;2.05;;
19566;SDS011;9930;49.240;8.548;2022-07-30T11:50:21;2.75;;;2.13;;
19566;SDS011;9930;49.240;8.548;2022-07-30T11:52:57;3.00;;;2.58;;
19566;SDS011;9930;49.240;8.548;2022-07-30T11:55:33;3.00;;;2.03;;
19566;SDS011;9930;49.240;8.548;2022-07-30T11:58:06;2.05;;;1.90;;
19566;SDS011;9930;49.240;8.548;2022-07-30T12:00:39;2.00;;;1.70;;
19566;SDS011;9930;49.240;8.548;2022-07-30T12:03:15;1.88;;;1.70;;
19566;SDS011;9930;49.240;8.548;2022-07-30T12:05:43;1.90;;;1.80;;
19566;SDS011;9930;49.240;8.548;2022-07-30T12:08:11;2.28;;;1.80;;
19566;SDS011;9930;49.240;8.548;2022-07-30T12:10:38;1.83;;;1.67;;
19566;SDS011;9930;49.240;8.548;2022-07-30T12:13:08;1.80;;;1.60;;
19566;SDS011;9930;49.240;8.548;2022-07-30T12:15:42;2.65;;;1.60;;
19566;SDS011;9930;49.240;8.548;2022-07-30T12:18:11;1.83;;;1.73;;
19566;SDS011;9930;49.240;8.548;2022-07-30T12:20:39;1.70;;;1.60;;
19566;SDS011;9930;49.240;8.548;2022-07-30T12:23:11;3.25;;;1.70;;
19566;SDS011;9930;49.240;8.548;2022-07-30T12:25:39;1.60;;;1.50;;
19566;SDS011;9930;49.240;8.548;2022-07-30T12:28:07;2.00;;;1.65;;
19566;SDS011;9930;49.240;8.548;2022-07-30T12:30:45;1.50;;;1.40;;
19566;SDS011;9930;49.240;8.548;2022-07-30T12:33:11;1.48;;;1.38;;
19566;SDS011;9930;49.240;8.548;2022-07-30T12:35:56;2.50;;;1.80;;
19566;SDS011;9930;49.240;8.548;2022-07-30T12:38:24;2.05;;;1.52;;
19566;SDS011;9930;49.240;8.548;2022-07-30T12:41:08;1.42;;;1.33;;
19566;SDS011;9930;49.240;8.548;2022-07-30T12:43:41;1.20;;;1.20;;
19566;SDS011;9930;49.240;8.548;2022-07-30T12:46:19;1.58;;;1.48;;
19566;SDS011;9930;49.240;8.548;2022-07-30T12:48:55;1.50;;;1.40;;
19566;SDS011;9930;49.240;8.548;2022-07-30T12:51:25;1.80;;;1.48;;
19566;SDS011;9930;49.240;8.548;2022-07-30T12:53:56;1.45;;;1.35;;
19566;SDS011;9930;49.240;8.548;2022-07-30T12:56:37;1.55;;;1.30;;
19566;SDS011;9930;49.240;8.548;2022-07-30T12:59:18;1.90;;;1.75;;
19566;SDS011;9930;49.240;8.548;2022-07-30T13:01:46;1.48;;;1.23;;
19566;SDS011;9930;49.240;8.548;2022-07-30T13:04:13;1.60;;;1.30;;
19566;SDS011;9930;49.240;8.548;2022-07-30T13:06:41;1.73;;;1.50;;
19566;SDS011;9930;49.240;8.548;2022-07-30T13:09:17;1.80;;;1.70;;
19566;SDS011;9930;49.240;8.548;2022-07-30T13:11:46;1.83;;;1.73;;
19566;SDS011;9930;49.240;8.548;2022-07-30T13:14:15;2.42;;;1.40;;
19566;SDS011;9930;49.240;8.548;2022-07-30T13:16:41;1.70;;;1.60;;
19566;SDS011;9930;49.240;8.548;2022-07-30T13:19:08;1.85;;;1.50;;
19566;SDS011;9930;49.240;8.548;2022-07-30T13:21:40;2.00;;;1.60;;
19566;SDS011;9930;49.240;8.548;2022-07-30T13:24:07;1.80;;;1.70;;
19566;SDS011;9930;49.240;8.548;2022-07-30T13:26:35;1.70;;;1.60;;
19566;SDS011;9930;49.240;8.548;2022-07-30T13:29:02;1.92;;;1.55;;
19566;SDS011;9930;49.240;8.548;2022-07-30T13:31:31;2.63;;;1.40;;
19566;SDS011;9930;49.240;8.548;2022-07-30T13:34:24;1.67;;;1.50;;
19566;SDS011;9930;49.240;8.548;2022-07-30T13:37:04;1.88;;;1.65;;
19566;SDS011;9930;49.240;8.548;2022-07-30T13:39:31;1.58;;;1.48;;
19566;SDS011;9930;49.240;8.548;2022-07-30T13:42:00;1.35;;;1.25;;
19566;SDS011;9930;49.240;8.548;2022-07-30T13:44:26;1.63;;;1.45;;
19566;SDS011;9930;49.240;8.548;2022-07-30T13:46:52;1.65;;;1.55;;
19566;SDS011;9930;49.240;8.548;2022-07-30T13:49:20;2.17;;;1.58;;
19566;SDS011;9930;49.240;8.548;2022-07-30T13:51:46;1.48;;;1.38;;
19566;SDS011;9930;49.240;8.548;2022-07-30T13:54:14;1.60;;;1.50;;
19566;SDS011;9930;49.240;8.548;2022-07-30T13:56:43;1.40;;;1.30;;
19566;SDS011;9930;49.240;8.548;2022-07-30T13:59:11;1.50;;;1.40;;
19566;SDS011;9930;49.240;8.548;2022-07-30T14:01:39;1.95;;;1.40;;
19566;SDS011;9930;49.240;8.548;2022-07-30T14:04:05;1.50;;;1.40;;
19566;SDS011;9930;49.240;8.548;2022-07-30T14:06:32;1.75;;;1.55;;
19566;SDS011;9930;49.240;8.548;2022-07-30T14:08:59;1.50;;;1.40;;
19566;SDS011;9930;49.240;8.548;2022-07-30T14:11:25;1.40;;;1.30;;
19566;SDS011;9930;49.240;8.548;2022-07-30T14:13:51;1.88;;;1.30;;
19566;SDS011;9930;49.240;8.548;2022-07-30T14:16:16;1.45;;;1.35;;
19566;SDS011;9930;49.240;8.548;2022-07-30T14:18:43;1.50;;;1.40;;
19566;SDS011;9930;49.240;8.548;2022-07-30T14:21:09;1.55;;;1.45;;
19566;SDS011;9930;49.240;8.548;2022-07-30T14:23:36;1.63;;;1.40;;
19566;SDS011;9930;49.240;8.548;2022-07-30T14:26:06;1.60;;;1.50;;
19566;SDS011;9930;49.240;8.548;2022-07-30T14:28:36;1.40;;;1.30;;
19566;SDS011;9930;49.240;8.548;2022-07-30T14:31:05;1.52;;;1.25;;
19566;SDS011;9930;49.240;8.548;2022-07-30T14:33:34;1.67;;;1.40;;
19566;SDS011;9930;49.240;8.548;2022-07-30T14:36:02;1.60;;;1.50;;
19566;SDS011;9930;49.240;8.548;2022-07-30T14:38:34;1.58;;;1.33;;
19566;SDS011;9930;49.240;8.548;2022-07-30T14:41:00;1.40;;;1.30;;
19566;SDS011;9930;49.240;8.548;2022-07-30T14:43:28;1.42;;;1.33;;
19566;SDS011;9930;49.240;8.548;2022-07-30T14:45:54;2.38;;;1.50;;
19566;SDS011;9930;49.240;8.548;2022-07-30T14:48:19;1.30;;;1.20;;
19566;SDS011;9930;49.240;8.548;2022-07-30T14:50:48;1.45;;;1.33;;
19566;SDS011;9930;49.240;8.548;2022-07-30T14:53:14;1.48;;;1.38;;
19566;SDS011;9930;49.240;8.548;2022-07-30T14:55:40;1.30;;;1.20;;
19566;SDS011;9930;49.240;8.548;2022-07-30T14:58:06;1.30;;;1.20;;
19566;SDS011;9930;49.240;8.548;2022-07-30T15:00:34;1.30;;;1.20;;
19566;SDS011;9930;49.240;8.548;2022-07-30T15:03:06;1.45;;;1.30;;
19566;SDS011;9930;49.240;8.548;2022-07-30T15:05:33;1.77;;;1.67;;
19566;SDS011;9930;49.240;8.548;2022-07-30T15:08:06;1.15;;;1.15;;
19566;SDS011;9930;49.240;8.548;2022-07-30T15:10:42;1.33;;;1.23;;
19566;SDS011;9930;49.240;8.548;2022-07-30T15:13:12;2.67;;;1.17;;
19566;SDS011;9930;49.240;8.548;2022-07-30T15:15:38;2.45;;;1.42;;
19566;SDS011;9930;49.240;8.548;2022-07-30T15:18:05;1.60;;;1.10;;
19566;SDS011;9930;49.240;8.548;2022-07-30T15:20:37;1.00;;;1.00;;
19566;SDS011;9930;49.240;8.548;2022-07-30T15:23:03;1.55;;;1.45;;
19566;SDS011;9930;49.240;8.548;2022-07-30T15:25:30;1.60;;;1.50;;
19566;SDS011;9930;49.240;8.548;2022-07-30T15:27:56;1.52;;;1.30;;
19566;SDS011;9930;49.240;8.548;2022-07-30T15:30:22;1.60;;;1.50;;
19566;SDS011;9930;49.240;8.548;2022-07-30T15:32:48;1.40;;;1.30;;
19566;SDS011;9930;49.240;8.548;2022-07-30T15:35:15;1.40;;;1.30;;
19566;SDS011;9930;49.240;8.548;2022-07-30T15:37:44;2.10;;;1.10;;
19566;SDS011;9930;49.240;8.548;2022-07-30T15:40:12;1.33;;;1.23;;
19566;SDS011;9930;49.240;8.548;2022-07-30T15:42:40;1.48;;;1.38;;
19566;SDS011;9930;49.240;8.548;2022-07-30T15:45:07;1.77;;;1.48;;
19566;SDS011;9930;49.240;8.548;2022-07-30T15:47:36;1.10;;;1.10;;
19566;SDS011;9930;49.240;8.548;2022-07-30T15:50:07;1.30;;;1.30;;
19566;SDS011;9930;49.240;8.548;2022-07-30T15:52:35;1.33;;;1.20;;
19566;SDS011;9930;49.240;8.548;2022-07-30T15:55:03;0.93;;;0.93;;
19566;SDS011;9930;49.240;8.548;2022-07-30T15:57:35;1.10;;;1.10;;
19566;SDS011;9930;49.240;8.548;2022-07-30T16:00:06;2.50;;;1.20;;
19566;SDS011;9930;49.240;8.548;2022-07-30T16:02:36;1.30;;;1.17;;
19566;SDS011;9930;49.240;8.548;2022-07-30T16:05:03;1.80;;;1.33;;